createdAt,value
2022-10-23T00:01:46.584Z,9.02
2022-10-23T00:04:15.584Z,9.38
2022-10-23T00:06:43.396Z,8.05
2022-10-23T00:09:12.921Z,8.38
2022-10-23T00:11:40.217Z,9.27
2022-10-23T00:14:09.578Z,8.77
2022-10-23T00:16:36.586Z,9.05
2022-10-23T00:19:03.748Z,9.25
2022-10-23T00:21:30.571Z,8.85
2022-10-23T00:23:57.423Z,9.65
2022-10-23T00:26:24.377Z,8.52
2022-10-23T00:28:52.710Z,9.57
2022-10-23T00:31:22.813Z,9.60
2022-10-23T00:33:50.384Z,10.02
2022-10-23T00:36:20.198Z,11.23
2022-10-23T00:38:47.758Z,11.45
2022-10-23T00:41:18.120Z,11.32
2022-10-23T00:44:00.478Z,9.98
2022-10-23T00:46:29.951Z,9.68
2022-10-23T00:48:57.926Z,10.30
2022-10-23T00:51:27.949Z,9.02
2022-10-23T00:54:06.776Z,9.48
2022-10-23T00:56:46.817Z,9.52
2022-10-23T00:59:13.784Z,9.88
2022-10-23T01:01:42.281Z,10.80
2022-10-23T01:04:10.182Z,10.65
2022-10-23T01:06:43.488Z,10.63
2022-10-23T01:09:17.910Z,10.57
2022-10-23T01:11:51.052Z,9.85
2022-10-23T01:14:26.508Z,11.88
2022-10-23T01:19:43.099Z,9.90
2022-10-23T01:22:28.050Z,11.18
2022-10-23T01:24:59.685Z,12.32
2022-10-23T01:27:33.015Z,13.20
2022-10-23T01:30:06.559Z,10.93
2022-10-23T01:32:44.649Z,12.25
2022-10-23T01:35:15.502Z,12.45
2022-10-23T01:37:46.016Z,11.75
2022-10-23T01:40:21.485Z,10.95
2022-10-23T01:42:55.061Z,14.15
2022-10-23T01:45:32.655Z,10.63
2022-10-23T01:48:02.127Z,10.98
2022-10-23T01:50:30.860Z,10.55
2022-10-23T01:53:03.516Z,11.05
2022-10-23T01:55:32.583Z,9.63
2022-10-23T01:58:07.439Z,10.07
2022-10-23T02:00:43.133Z,10.48
2022-10-23T02:03:11.904Z,9.60
2022-10-23T02:05:39.469Z,10.50
2022-10-23T02:08:07.120Z,10.52
2022-10-23T02:10:41.696Z,10.10
2022-10-23T02:13:16.608Z,10.15
2022-10-23T02:15:49.238Z,10.65
2022-10-23T02:18:30.594Z,9.45
2022-10-23T02:21:00.772Z,10.57
2022-10-23T02:23:32.304Z,11.70
2022-10-23T02:26:04.854Z,10.77
2022-10-23T02:28:39.564Z,10.20
2022-10-23T02:31:13.306Z,10.20
2022-10-23T02:33:41.151Z,11.98
2022-10-23T02:36:09.005Z,10.88
2022-10-23T02:38:38.413Z,10.70
2022-10-23T02:41:16.570Z,10.05
2022-10-23T02:43:55.047Z,9.88
2022-10-23T02:46:28.919Z,11.25
2022-10-23T02:49:05.953Z,9.68
2022-10-23T02:51:41.451Z,10.30
2022-10-23T02:54:16.740Z,10.88
2022-10-23T02:56:51.083Z,9.35
2022-10-23T02:59:25.760Z,9.57
2022-10-23T03:01:58.464Z,11.65
2022-10-23T03:04:28.127Z,10.50
2022-10-23T03:06:55.845Z,10.65
2022-10-23T03:09:22.845Z,10.85
2022-10-23T03:11:49.766Z,10.65
2022-10-23T03:14:16.608Z,9.45
2022-10-23T03:16:46.286Z,10.95
2022-10-23T03:19:13.383Z,9.82
2022-10-23T03:21:41.139Z,11.20
2022-10-23T03:24:09.004Z,11.38
2022-10-23T03:26:41.040Z,10.32
2022-10-23T03:29:07.985Z,10.00
2022-10-23T03:31:41.289Z,10.25
2022-10-23T03:34:11.509Z,10.13
2022-10-23T03:36:40.702Z,9.55
2022-10-23T03:39:08.911Z,9.82
2022-10-23T03:41:35.707Z,10.70
2022-10-23T03:46:34.575Z,11.98
2022-10-23T03:49:01.533Z,10.77
2022-10-23T03:51:30.201Z,12.20
2022-10-23T03:53:57.858Z,12.57
2022-10-23T03:56:24.790Z,12.30
2022-10-23T03:58:51.664Z,10.52
2022-10-23T04:01:18.522Z,10.02
2022-10-23T04:03:46.302Z,9.60
2022-10-23T04:06:15.177Z,9.75
2022-10-23T04:08:44.674Z,10.43
2022-10-23T04:11:17.117Z,9.88
2022-10-23T04:13:46.944Z,10.23
2022-10-23T04:16:13.887Z,9.88
2022-10-23T04:18:41.610Z,10.90
2022-10-23T04:21:09.881Z,11.20
2022-10-23T04:23:37.144Z,11.68
2022-10-23T04:26:07.259Z,8.55
2022-10-23T04:28:34.063Z,11.43
2022-10-23T04:31:01.093Z,9.13
2022-10-23T04:33:28.120Z,9.23
2022-10-23T04:35:54.910Z,8.27
2022-10-23T04:38:21.712Z,8.75
2022-10-23T04:40:49.981Z,10.13
2022-10-23T04:43:22.155Z,8.85
2022-10-23T04:45:49.894Z,9.55
2022-10-23T04:48:16.894Z,9.88
2022-10-23T04:51:12.801Z,9.65
2022-10-23T04:53:53.798Z,9.10
2022-10-23T04:56:55.799Z,8.32
2022-10-23T04:59:25.209Z,8.73
2022-10-23T05:01:52.135Z,8.35
2022-10-23T05:04:19.003Z,8.48
2022-10-23T05:07:04.438Z,7.65
2022-10-23T05:09:42.775Z,8.18
2022-10-23T05:12:28.196Z,8.50
2022-10-23T05:14:56.488Z,8.55
2022-10-23T05:17:29.361Z,8.10
2022-10-23T05:20:00.730Z,8.88
2022-10-23T05:22:32.230Z,7.78
2022-10-23T05:24:59.098Z,8.40
2022-10-23T05:27:26.700Z,8.15
2022-10-23T05:29:56.221Z,6.85
2022-10-23T05:32:29.695Z,6.90
2022-10-23T05:34:59.211Z,7.38
2022-10-23T05:37:29.491Z,8.40
2022-10-23T05:40:19.646Z,8.35
2022-10-23T05:42:48.162Z,8.95
2022-10-23T05:45:19.927Z,7.93
2022-10-23T05:48:17.049Z,6.70
2022-10-23T05:51:12.199Z,6.72
2022-10-23T05:53:56.112Z,7.03
2022-10-23T05:56:55.766Z,7.30
2022-10-23T05:59:30.917Z,7.65
2022-10-23T06:02:20.492Z,7.40
2022-10-23T06:04:55.852Z,7.40
2022-10-23T06:07:48.615Z,7.78
2022-10-23T06:10:15.600Z,7.43
2022-10-23T06:12:45.891Z,6.93
2022-10-23T06:15:16.092Z,7.03
2022-10-23T06:18:00.736Z,7.70
2022-10-23T06:20:28.859Z,7.65
2022-10-23T06:23:05.391Z,8.98
2022-10-23T06:25:51.663Z,9.48
2022-10-23T06:28:20.611Z,9.07
2022-10-23T06:30:48.146Z,8.82
2022-10-23T06:33:16.488Z,8.07
2022-10-23T06:35:44.143Z,9.30
2022-10-23T06:38:12.676Z,7.35
2022-10-23T06:40:53.127Z,8.95
2022-10-23T06:43:26.082Z,8.63
2022-10-23T06:46:08.035Z,8.73
2022-10-23T06:49:05.039Z,9.00
2022-10-23T06:51:38.008Z,9.73
2022-10-23T06:54:09.933Z,9.10
2022-10-23T06:57:05.820Z,8.77
2022-10-23T06:59:41.619Z,8.80
2022-10-23T07:02:09.700Z,9.02
2022-10-23T07:04:39.801Z,9.43
2022-10-23T07:07:11.830Z,9.20
2022-10-23T07:09:48.589Z,8.55
2022-10-23T07:12:35.628Z,8.30
2022-10-23T07:15:26.226Z,8.55
2022-10-23T07:17:53.148Z,9.05
2022-10-23T07:20:22.795Z,8.30
2022-10-23T07:22:52.049Z,8.95
2022-10-23T07:25:26.743Z,7.85
2022-10-23T07:27:55.849Z,9.20
2022-10-23T07:30:24.696Z,8.80
2022-10-23T07:32:54.484Z,10.18
2022-10-23T07:35:39.381Z,8.52
2022-10-23T07:38:13.925Z,8.35
2022-10-23T07:40:47.773Z,9.13
2022-10-23T07:43:18.670Z,8.55
2022-10-23T07:45:47.600Z,8.93
2022-10-23T07:51:01.650Z,8.63
2022-10-23T07:53:38.976Z,9.68
2022-10-23T07:56:16.022Z,9.40
2022-10-23T07:59:05.692Z,8.77
2022-10-23T08:01:34.748Z,8.45
2022-10-23T08:04:03.236Z,8.13
2022-10-23T08:06:33.156Z,8.77
2022-10-23T08:09:02.362Z,9.27
2022-10-23T08:11:35.940Z,9.40
2022-10-23T08:14:06.295Z,7.18
2022-10-23T08:16:35.167Z,7.88
2022-10-23T08:19:06.592Z,6.88
2022-10-23T08:21:36.933Z,7.25
2022-10-23T08:24:04.755Z,6.88
2022-10-23T08:26:31.762Z,6.78
2022-10-23T08:28:59.584Z,6.40
2022-10-23T08:31:28.083Z,6.93
2022-10-23T08:34:15.735Z,7.63
2022-10-23T08:36:46.403Z,7.05
2022-10-23T08:39:14.397Z,18.27
2022-10-23T08:41:53.327Z,19.83
2022-10-23T08:44:24.721Z,7.45
2022-10-23T08:47:05.409Z,6.93
2022-10-23T08:49:54.028Z,8.52
2022-10-23T08:52:29.924Z,7.85
2022-10-23T08:55:04.937Z,7.30
2022-10-23T08:57:40.029Z,6.80
2022-10-23T09:00:14.289Z,6.65
2022-10-23T09:02:44.282Z,6.50
2022-10-23T09:05:15.710Z,7.78
2022-10-23T09:07:55.216Z,8.23
2022-10-23T09:10:34.143Z,7.65
2022-10-23T09:13:13.760Z,6.65
2022-10-23T09:15:44.974Z,7.63
2022-10-23T09:18:14.193Z,7.68
2022-10-23T09:20:42.479Z,6.55
2022-10-23T09:23:17.029Z,8.13
2022-10-23T09:25:45.480Z,7.53
2022-10-23T09:28:18.750Z,7.68
2022-10-23T09:30:45.527Z,7.80
2022-10-23T09:33:17.635Z,7.63
2022-10-23T09:35:57.055Z,6.50
2022-10-23T09:38:30.973Z,12.38
2022-10-23T09:41:00.179Z,6.68
2022-10-23T09:43:27.976Z,7.60
2022-10-23T09:46:03.031Z,16.88
2022-10-23T09:50:59.797Z,8.35
2022-10-23T09:53:32.287Z,6.15
2022-10-23T09:56:02.190Z,10.70
2022-10-23T09:58:35.359Z,6.65
2022-10-23T10:01:02.702Z,6.53
2022-10-23T10:03:50.229Z,6.10
2022-10-23T10:06:24.624Z,6.80
2022-10-23T10:08:58.184Z,7.38
2022-10-23T10:11:32.171Z,4.90
2022-10-23T10:14:07.855Z,15.27
2022-10-23T10:16:43.005Z,5.78
2022-10-23T10:19:23.283Z,6.28
2022-10-23T10:21:56.156Z,5.97
2022-10-23T10:24:30.380Z,5.10
2022-10-23T10:27:07.219Z,5.32
2022-10-23T10:29:59.572Z,6.50
2022-10-23T10:32:35.819Z,6.25
2022-10-23T10:35:23.690Z,5.72
2022-10-23T10:38:32.072Z,5.07
2022-10-23T10:41:20.152Z,5.68
2022-10-23T10:43:59.143Z,4.80
2022-10-23T10:46:34.288Z,6.07
2022-10-23T10:49:10.728Z,6.13
2022-10-23T10:51:56.080Z,6.20
2022-10-23T10:54:44.433Z,8.43
2022-10-23T10:57:27.356Z,5.70
2022-10-23T10:59:57.492Z,5.97
2022-10-23T11:02:28.691Z,5.18
2022-10-23T11:05:03.312Z,5.60
2022-10-23T11:07:38.310Z,5.88
2022-10-23T11:10:25.466Z,5.82
2022-10-23T11:12:54.428Z,4.97
2022-10-23T11:15:28.026Z,6.00
2022-10-23T11:17:58.675Z,5.53
2022-10-23T11:20:51.162Z,5.80
2022-10-23T11:23:42.649Z,5.82
2022-10-23T11:26:24.382Z,5.93
2022-10-23T11:29:31.767Z,4.97
2022-10-23T11:32:29.809Z,5.30
2022-10-23T11:35:14.916Z,5.78
2022-10-23T11:37:42.318Z,5.68
2022-10-23T11:40:32.355Z,5.82
2022-10-23T11:43:03.828Z,6.22
2022-10-23T11:45:34.795Z,6.50
2022-10-23T11:48:03.277Z,5.30
2022-10-23T11:50:33.965Z,5.07
2022-10-23T11:53:33.326Z,4.97
2022-10-23T11:56:23.381Z,4.80
2022-10-23T11:58:51.443Z,5.22
2022-10-23T12:01:37.558Z,4.40
2022-10-23T12:04:18.824Z,5.10
2022-10-23T12:06:48.774Z,6.05
2022-10-23T12:09:32.041Z,4.85
2022-10-23T12:12:16.621Z,5.05
2022-10-23T12:14:45.899Z,5.13
2022-10-23T12:17:30.581Z,8.75
2022-10-23T12:20:27.302Z,5.70
2022-10-23T12:26:28.998Z,5.03
2022-10-23T12:29:04.326Z,5.10
2022-10-23T12:31:47.030Z,4.82
2022-10-23T12:34:31.790Z,4.95
2022-10-23T12:37:16.195Z,5.30
2022-10-23T12:39:43.220Z,5.25
2022-10-23T12:42:20.663Z,4.22
2022-10-23T12:44:58.814Z,5.80
2022-10-23T12:47:26.163Z,4.43
2022-10-23T12:49:54.901Z,6.03
2022-10-23T12:54:52.287Z,5.53
2022-10-23T12:57:26.797Z,5.00
2022-10-23T12:59:57.353Z,5.22
2022-10-23T13:02:26.011Z,5.43
2022-10-23T13:04:57.552Z,5.97
2022-10-23T13:07:28.502Z,5.22
2022-10-23T13:09:59.324Z,5.35
2022-10-23T13:12:32.093Z,6.05
2022-10-23T13:15:03.477Z,5.97
2022-10-23T13:17:36.370Z,5.93
2022-10-23T13:20:32.359Z,5.35
2022-10-23T13:23:08.352Z,7.10
2022-10-23T13:25:38.037Z,5.13
2022-10-23T13:28:24.513Z,5.05
2022-10-23T13:31:03.504Z,5.80
2022-10-23T13:33:36.441Z,5.47
2022-10-23T13:36:19.475Z,5.70
2022-10-23T13:39:05.353Z,9.93
2022-10-23T13:41:39.551Z,5.82
2022-10-23T13:44:06.764Z,6.15
2022-10-23T13:46:34.981Z,5.88
2022-10-23T13:49:02.023Z,6.22
2022-10-23T13:51:37.621Z,6.97
2022-10-23T13:54:15.023Z,6.60
2022-10-23T13:56:42.819Z,6.50
2022-10-23T13:59:11.661Z,6.38
2022-10-23T14:01:39.614Z,6.65
2022-10-23T14:04:07.316Z,6.25
2022-10-23T14:06:37.550Z,5.97
2022-10-23T14:09:05.592Z,6.25
2022-10-23T14:11:33.908Z,6.78
2022-10-23T14:14:01.411Z,6.88
2022-10-23T14:16:29.323Z,6.28
2022-10-23T14:18:56.246Z,5.85
2022-10-23T14:21:24.774Z,5.95
2022-10-23T14:23:58.678Z,5.00
2022-10-23T14:26:30.520Z,4.50
2022-10-23T14:29:01.101Z,4.72
2022-10-23T14:31:34.952Z,5.35
2022-10-23T14:34:09.634Z,4.70
2022-10-23T14:36:49.881Z,4.90
2022-10-23T14:39:19.279Z,4.65
2022-10-23T14:41:48.916Z,4.55
2022-10-23T14:44:18.862Z,4.95
2022-10-23T14:46:46.753Z,4.85
2022-10-23T14:49:13.500Z,4.90
2022-10-23T14:51:43.871Z,4.82
2022-10-23T14:54:12.714Z,4.47
2022-10-23T14:56:41.363Z,4.90
2022-10-23T14:59:10.394Z,5.32
2022-10-23T15:01:45.354Z,4.20
2022-10-23T15:04:15.464Z,4.90
2022-10-23T15:06:42.916Z,5.78
2022-10-23T15:09:11.047Z,5.43
2022-10-23T15:11:37.886Z,9.82
2022-10-23T15:14:06.453Z,5.45
2022-10-23T15:16:41.599Z,4.57
2022-10-23T15:19:13.623Z,5.15
2022-10-23T15:21:44.288Z,5.88
2022-10-23T15:24:13.769Z,5.65
2022-10-23T15:29:24.463Z,5.47
2022-10-23T15:31:55.919Z,5.65
2022-10-23T15:34:28.199Z,5.22
2022-10-23T15:36:59.752Z,4.95
2022-10-23T15:39:28.797Z,5.55
2022-10-23T15:41:57.495Z,4.88
2022-10-23T15:44:28.208Z,4.40
2022-10-23T15:46:57.177Z,5.68
2022-10-23T15:49:24.971Z,4.90
2022-10-23T15:51:52.542Z,5.15
2022-10-23T15:54:20.690Z,5.85
2022-10-23T15:56:50.186Z,5.20
2022-10-23T16:01:45.938Z,4.95
2022-10-23T16:04:12.883Z,4.53
2022-10-23T16:06:40.457Z,4.47
2022-10-23T16:09:07.447Z,4.65
2022-10-23T16:11:37.232Z,5.20
2022-10-23T16:16:33.812Z,4.75
2022-10-23T16:19:04.410Z,4.35
2022-10-23T16:21:35.274Z,4.82
2022-10-23T16:24:04.014Z,4.90
2022-10-23T16:26:32.000Z,4.47
2022-10-23T16:29:10.721Z,4.43
2022-10-23T16:31:39.919Z,4.47
2022-10-23T16:34:10.668Z,4.35
2022-10-23T16:36:43.306Z,4.47
2022-10-23T16:39:20.874Z,4.57
2022-10-23T16:42:06.583Z,5.88
2022-10-23T16:44:47.432Z,4.88
2022-10-23T16:47:20.296Z,4.88
2022-10-23T16:49:48.690Z,5.45
2022-10-23T16:52:15.570Z,5.20
2022-10-23T16:54:42.846Z,6.05
2022-10-23T16:57:09.968Z,5.15
2022-10-23T16:59:37.082Z,5.68
2022-10-23T17:02:07.615Z,5.55
2022-10-23T17:04:37.220Z,6.32
2022-10-23T17:07:06.491Z,7.40
2022-10-23T17:09:33.364Z,5.97
2022-10-23T17:12:00.340Z,5.75
2022-10-23T17:14:30.310Z,6.90
2022-10-23T17:16:59.482Z,5.38
2022-10-23T17:22:16.199Z,5.70
2022-10-23T17:24:45.279Z,5.68
2022-10-23T17:27:14.597Z,6.05
2022-10-23T17:29:41.362Z,6.00
2022-10-23T17:32:08.321Z,6.03
2022-10-23T17:34:35.216Z,5.90
2022-10-23T17:37:02.031Z,6.60
2022-10-23T17:39:30.397Z,6.55
2022-10-23T17:41:57.638Z,5.70
2022-10-23T17:44:24.412Z,6.38
2022-10-23T17:46:53.497Z,5.82
2022-10-23T17:49:21.105Z,5.40
2022-10-23T17:51:51.801Z,5.75
2022-10-23T17:54:18.703Z,5.68
2022-10-23T17:56:47.092Z,5.38
2022-10-23T17:59:15.902Z,5.20
2022-10-23T18:01:43.959Z,5.60
2022-10-23T18:04:11.078Z,6.40
2022-10-23T18:06:43.004Z,5.78
2022-10-23T18:09:10.325Z,5.53
2022-10-23T18:11:41.458Z,6.03
2022-10-23T18:14:12.216Z,5.60
2022-10-23T18:16:41.129Z,6.55
2022-10-23T18:19:08.864Z,5.68
2022-10-23T18:21:36.532Z,6.53
2022-10-23T18:24:04.153Z,5.13
2022-10-23T18:26:35.296Z,6.70
2022-10-23T18:29:07.267Z,5.22
2022-10-23T18:31:37.524Z,5.38
2022-10-23T18:34:07.768Z,5.68
2022-10-23T18:36:36.920Z,5.25
2022-10-23T18:39:05.527Z,5.63
2022-10-23T18:41:34.259Z,6.50
2022-10-23T18:44:01.933Z,5.78
2022-10-23T18:46:29.018Z,5.57
2022-10-23T18:48:57.458Z,4.78
2022-10-23T18:51:28.122Z,5.28
2022-10-23T18:53:55.096Z,5.50
2022-10-23T18:56:24.737Z,4.93
2022-10-23T18:58:53.257Z,4.93
2022-10-23T19:01:21.247Z,4.10
2022-10-23T19:03:48.231Z,5.50
2022-10-23T19:06:17.464Z,5.18
2022-10-23T19:08:45.245Z,6.03
2022-10-23T19:11:13.680Z,5.22
2022-10-23T19:13:41.485Z,5.55
2022-10-23T19:16:12.877Z,7.15
2022-10-23T19:18:42.810Z,5.82
2022-10-23T19:21:09.712Z,5.53
2022-10-23T19:23:40.858Z,6.35
2022-10-23T19:26:09.501Z,4.93
2022-10-23T19:28:37.772Z,5.03
2022-10-23T19:31:05.883Z,5.50
2022-10-23T19:33:34.354Z,6.18
2022-10-23T19:36:05.228Z,6.07
2022-10-23T19:38:33.006Z,6.50
2022-10-23T19:41:01.858Z,6.90
2022-10-23T19:43:28.804Z,5.70
2022-10-23T19:45:55.717Z,5.68
2022-10-23T19:48:22.419Z,10.13
2022-10-23T19:50:49.207Z,7.03
2022-10-23T19:53:17.085Z,7.50
2022-10-23T19:55:43.871Z,6.70
2022-10-23T19:58:12.356Z,6.55
2022-10-23T20:00:39.618Z,6.20
2022-10-23T20:03:06.341Z,6.88
2022-10-23T20:05:33.345Z,7.07
2022-10-23T20:08:00.154Z,7.72
2022-10-23T20:10:26.902Z,7.60
2022-10-23T20:13:02.361Z,6.20
2022-10-23T20:15:41.987Z,7.68
2022-10-23T20:18:08.791Z,6.78
2022-10-23T20:20:40.022Z,6.85
2022-10-23T20:23:06.862Z,7.13
2022-10-23T20:25:33.612Z,8.02
2022-10-23T20:28:00.769Z,6.45
2022-10-23T20:30:27.547Z,6.93
2022-10-23T20:32:55.883Z,6.43
2022-10-23T20:35:22.674Z,5.60
2022-10-23T20:37:49.447Z,4.53
2022-10-23T20:40:16.283Z,4.32
2022-10-23T20:42:43.175Z,4.78
2022-10-23T20:45:10.888Z,3.95
2022-10-23T20:47:37.738Z,3.97
2022-10-23T20:50:08.685Z,4.15
2022-10-23T20:52:35.514Z,3.70
2022-10-23T20:55:02.320Z,4.10
2022-10-23T20:57:29.163Z,3.50
2022-10-23T20:59:56.068Z,3.58
2022-10-23T21:02:23.042Z,3.95
2022-10-23T21:04:50.537Z,4.93
2022-10-23T21:07:21.146Z,4.03
2022-10-23T21:09:48.152Z,3.95
2022-10-23T21:12:15.192Z,4.45
2022-10-23T21:14:42.122Z,4.20
2022-10-23T21:17:10.909Z,4.40
2022-10-23T21:19:39.337Z,4.70
2022-10-23T21:22:06.139Z,4.22
2022-10-23T21:24:34.342Z,4.50
2022-10-23T21:27:01.362Z,3.90
2022-10-23T21:29:28.222Z,4.18
2022-10-23T21:31:56.318Z,4.75
2022-10-23T21:34:23.547Z,4.22
2022-10-23T21:39:38.805Z,4.65
2022-10-23T21:42:05.896Z,3.28
2022-10-23T21:44:32.996Z,4.70
2022-10-23T21:47:00.186Z,3.78
2022-10-23T21:49:27.100Z,4.45
2022-10-23T21:51:55.187Z,4.63
2022-10-23T21:54:22.292Z,4.43
2022-10-23T21:56:53.746Z,3.92
2022-10-23T21:59:22.819Z,3.80
2022-10-23T22:01:50.352Z,4.55
2022-10-23T22:04:18.796Z,3.58
2022-10-23T22:06:47.215Z,3.83
2022-10-23T22:09:16.707Z,4.18
2022-10-23T22:14:11.814Z,3.53
2022-10-23T22:16:38.697Z,4.47
2022-10-23T22:19:05.489Z,4.85
2022-10-23T22:21:32.389Z,4.93
2022-10-23T22:24:00.832Z,5.38
2022-10-23T22:26:30.352Z,5.55
2022-10-23T22:28:59.339Z,6.07
2022-10-23T22:31:31.716Z,6.18
2022-10-23T22:33:59.552Z,6.55
2022-10-23T22:36:26.888Z,5.45
2022-10-23T22:38:54.962Z,6.53
2022-10-23T22:41:21.751Z,8.20
2022-10-23T22:43:53.399Z,5.28
2022-10-23T22:46:20.248Z,6.18
2022-10-23T22:48:48.520Z,5.30
2022-10-23T22:51:17.800Z,5.68
2022-10-23T22:53:44.918Z,5.65
2022-10-23T22:56:14.899Z,5.72
2022-10-23T22:58:42.212Z,5.75
2022-10-23T23:01:12.026Z,6.72
2022-10-23T23:03:39.094Z,8.05
2022-10-23T23:06:08.455Z,4.53
2022-10-23T23:08:38.599Z,5.28
2022-10-23T23:11:07.724Z,4.90
2022-10-23T23:13:35.023Z,4.80
2022-10-23T23:16:02.540Z,4.97
2022-10-23T23:18:29.953Z,5.55
2022-10-23T23:21:00.855Z,3.78
2022-10-23T23:23:29.172Z,4.45
2022-10-23T23:25:56.031Z,4.45
2022-10-23T23:28:23.343Z,4.35
2022-10-23T23:30:50.179Z,4.35
2022-10-23T23:33:19.567Z,4.85
2022-10-23T23:35:48.122Z,3.92
2022-10-23T23:38:14.983Z,3.72
2022-10-23T23:40:50.016Z,3.80
2022-10-23T23:43:16.945Z,3.20
2022-10-23T23:45:43.723Z,3.42
2022-10-23T23:48:10.646Z,3.10
2022-10-23T23:50:37.879Z,3.15
2022-10-23T23:53:04.805Z,3.15
2022-10-23T23:55:31.641Z,3.38
2022-10-23T23:58:00.065Z,3.90
